createdAt,value
2022-10-05T00:00:21.649Z,12.5
2022-10-05T00:01:21.744Z,12.5
2022-10-05T00:02:21.723Z,12.5
2022-10-05T00:03:21.759Z,12.5
2022-10-05T00:04:21.789Z,12.4286
2022-10-05T00:05:21.906Z,12.4286
2022-10-05T00:06:21.863Z,12.4286
2022-10-05T00:07:21.902Z,12.4286
2022-10-05T00:08:21.948Z,12.4286
2022-10-05T00:09:21.979Z,12.4286
2022-10-05T00:10:22.010Z,12.4286
2022-10-05T00:11:22.043Z,12.4286
2022-10-05T00:12:22.077Z,12.3571
2022-10-05T00:13:22.114Z,12.3571
2022-10-05T00:14:22.139Z,12.3571
2022-10-05T00:15:22.175Z,12.3571
2022-10-05T00:16:22.270Z,12.3571
2022-10-05T00:17:22.247Z,12.3571
2022-10-05T00:18:22.278Z,12.3571
2022-10-05T00:19:22.307Z,12.3571
2022-10-05T00:20:22.328Z,12.3571
2022-10-05T00:21:22.375Z,12.3571
2022-10-05T00:22:22.401Z,12.3571
2022-10-05T00:23:22.445Z,12.3571
2022-10-05T00:24:22.480Z,12.2857
2022-10-05T00:25:22.510Z,12.2857
2022-10-05T00:26:22.544Z,12.2857
2022-10-05T00:27:22.568Z,12.2857
2022-10-05T00:28:22.729Z,12.2857
2022-10-05T00:29:22.633Z,12.2857
2022-10-05T00:30:22.663Z,12.2857
2022-10-05T00:31:22.810Z,12.2857
2022-10-05T00:32:22.737Z,12.2857
2022-10-05T00:33:22.775Z,12.2857
2022-10-05T00:34:22.801Z,12.2857
2022-10-05T00:35:22.840Z,12.2857
2022-10-05T00:36:22.878Z,12.2857
2022-10-05T00:37:22.908Z,12.2857
2022-10-05T00:38:22.956Z,12.2857
2022-10-05T00:39:22.983Z,12.2857
2022-10-05T00:40:23.014Z,12.2857
2022-10-05T00:41:23.045Z,12.2857
2022-10-05T00:42:23.078Z,12.2857
2022-10-05T00:43:23.112Z,12.2857
2022-10-05T00:44:23.147Z,12.2857
2022-10-05T00:45:23.179Z,12.2857
2022-10-05T00:46:23.252Z,12.2857
2022-10-05T00:47:23.238Z,12.2857
2022-10-05T00:48:23.268Z,12.2857
2022-10-05T00:49:23.303Z,12.2857
2022-10-05T00:50:23.338Z,12.2857
2022-10-05T00:51:23.374Z,12.2857
2022-10-05T00:52:23.408Z,12.2857
2022-10-05T00:53:23.444Z,12.2857
2022-10-05T00:54:23.475Z,12.2857
2022-10-05T00:55:23.510Z,12.2857
2022-10-05T00:56:23.544Z,12.2857
2022-10-05T00:57:23.578Z,12.2857
2022-10-05T00:58:23.605Z,12.3571
2022-10-05T00:59:23.635Z,12.3571
2022-10-05T01:00:23.677Z,12.3571
2022-10-05T01:01:23.837Z,12.3571
2022-10-05T01:02:23.809Z,12.3571
2022-10-05T01:03:23.771Z,12.3571
2022-10-05T01:04:23.802Z,12.4286
2022-10-05T01:05:23.842Z,12.4286
2022-10-05T01:06:23.878Z,12.4286
2022-10-05T01:07:23.904Z,12.4286
2022-10-05T01:08:23.941Z,12.4286
2022-10-05T01:09:23.972Z,12.4286
2022-10-05T01:10:24.008Z,12.4286
2022-10-05T01:11:24.047Z,12.4286
2022-10-05T01:12:24.080Z,12.4286
2022-10-05T01:13:24.119Z,12.5
2022-10-05T01:14:24.155Z,12.5
2022-10-05T01:15:24.182Z,12.5
2022-10-05T01:16:24.272Z,12.5
2022-10-05T01:17:24.249Z,12.5
2022-10-05T01:18:24.273Z,12.5
2022-10-05T01:19:24.325Z,12.5
2022-10-05T01:20:24.334Z,12.5
2022-10-05T01:21:24.375Z,12.5
2022-10-05T01:22:24.406Z,12.5
2022-10-05T01:23:24.434Z,12.5
2022-10-05T01:24:24.471Z,12.5
2022-10-05T01:25:24.496Z,12.5
2022-10-05T01:26:24.531Z,12.5
2022-10-05T01:27:24.574Z,12.5
2022-10-05T01:28:24.650Z,12.5
2022-10-05T01:29:24.636Z,12.5
2022-10-05T01:30:24.668Z,12.5
2022-10-05T01:31:24.763Z,12.5
2022-10-05T01:32:24.741Z,12.5
2022-10-05T01:33:24.775Z,12.5
2022-10-05T01:34:24.810Z,12.5
2022-10-05T01:35:24.848Z,12.5
2022-10-05T01:36:24.880Z,12.4286
2022-10-05T01:37:24.913Z,12.4286
2022-10-05T01:38:24.953Z,12.4286
2022-10-05T01:39:24.997Z,12.4286
2022-10-05T01:40:25.035Z,12.4286
2022-10-05T01:41:25.071Z,12.4286
2022-10-05T01:42:25.106Z,12.4286
2022-10-05T01:43:25.140Z,12.3571
2022-10-05T01:44:25.182Z,12.3571
2022-10-05T01:45:25.216Z,12.3571
2022-10-05T01:46:25.245Z,12.3571
2022-10-05T01:47:25.276Z,12.3571
2022-10-05T01:48:25.308Z,12.3571
2022-10-05T01:49:25.349Z,12.3571
2022-10-05T01:50:25.385Z,12.3571
2022-10-05T01:51:25.417Z,12.2857
2022-10-05T01:52:25.448Z,12.2857
2022-10-05T01:53:25.483Z,12.2857
2022-10-05T01:54:25.516Z,12.2857
2022-10-05T01:55:25.551Z,12.2857
2022-10-05T01:56:25.578Z,12.2857
2022-10-05T01:57:25.605Z,12.2857
2022-10-05T01:58:25.645Z,12.2857
2022-10-05T01:59:25.681Z,12.2857
2022-10-05T02:00:25.717Z,12.2857
2022-10-05T02:01:25.775Z,12.2143
2022-10-05T02:02:25.848Z,12.2143
2022-10-05T02:03:25.822Z,12.2143
2022-10-05T02:04:59.750Z,12.2143
2022-10-05T02:05:25.881Z,12.2143
2022-10-05T02:06:25.920Z,12.2143
2022-10-05T02:07:25.955Z,12.2143
2022-10-05T02:08:25.988Z,12.2143
2022-10-05T02:09:26.018Z,12.2143
2022-10-05T02:10:26.045Z,12.2143
2022-10-05T02:11:26.084Z,12.1429
2022-10-05T02:12:26.118Z,12.1429
2022-10-05T02:13:26.156Z,12.1429
2022-10-05T02:14:26.181Z,12.1429
2022-10-05T02:15:26.223Z,12.1429
2022-10-05T02:16:26.280Z,12.1429
2022-10-05T02:17:26.298Z,12.1429
2022-10-05T02:18:26.338Z,12.1429
2022-10-05T02:19:26.368Z,12.0714
2022-10-05T02:20:26.407Z,12.0714
2022-10-05T02:21:26.436Z,12.0714
2022-10-05T02:22:26.464Z,12.0714
2022-10-05T02:23:26.502Z,12
2022-10-05T02:24:26.536Z,12
2022-10-05T02:25:26.571Z,12
2022-10-05T02:26:26.611Z,12
2022-10-05T02:27:26.636Z,12
2022-10-05T02:28:26.732Z,12
2022-10-05T02:29:26.712Z,11.9286
2022-10-05T02:30:26.747Z,11.9286
2022-10-05T02:31:26.853Z,11.9286
2022-10-05T02:32:26.813Z,11.9286
2022-10-05T02:33:26.841Z,11.9286
2022-10-05T02:34:26.866Z,11.9286
2022-10-05T02:35:26.903Z,11.9286
2022-10-05T02:36:26.943Z,11.8571
2022-10-05T02:37:26.973Z,11.8571
2022-10-05T02:38:27.000Z,11.8571
2022-10-05T02:39:27.036Z,11.8571
2022-10-05T02:40:27.085Z,11.8571
2022-10-05T02:41:27.097Z,11.7857
2022-10-05T02:42:27.146Z,11.7857
2022-10-05T02:43:27.181Z,11.7857
2022-10-05T02:44:27.201Z,11.7857
2022-10-05T02:45:27.234Z,11.7857
2022-10-05T02:46:27.379Z,11.7857
2022-10-05T02:47:27.280Z,11.7143
2022-10-05T02:48:27.320Z,11.7143
2022-10-05T02:49:27.346Z,11.7143
2022-10-05T02:50:27.387Z,11.7143
2022-10-05T02:51:27.420Z,11.7143
2022-10-05T02:52:27.452Z,11.7143
2022-10-05T02:53:27.489Z,11.7143
2022-10-05T02:54:27.516Z,11.7143
2022-10-05T02:55:27.556Z,11.7143
2022-10-05T02:56:27.591Z,11.7143
2022-10-05T02:57:27.626Z,11.7143
2022-10-05T02:58:27.668Z,11.6429
2022-10-05T02:59:27.689Z,11.6429
2022-10-05T03:00:27.721Z,11.7143
2022-10-05T03:01:27.863Z,11.7143
2022-10-05T03:02:27.885Z,11.7143
2022-10-05T03:03:27.825Z,11.7143
2022-10-05T03:04:27.860Z,11.7143
2022-10-05T03:05:27.898Z,11.7857
2022-10-05T03:06:27.930Z,11.7857
2022-10-05T03:07:27.961Z,11.7857
2022-10-05T03:08:28.001Z,11.7857
2022-10-05T03:09:28.033Z,11.8571
2022-10-05T03:10:28.062Z,11.8571
2022-10-05T03:11:28.096Z,11.8571
2022-10-05T03:12:28.128Z,11.8571
2022-10-05T03:13:28.165Z,11.9286
2022-10-05T03:14:28.206Z,11.9286
2022-10-05T03:15:28.230Z,11.9286
2022-10-05T03:16:28.358Z,11.9286
2022-10-05T03:17:28.303Z,12
2022-10-05T03:18:30.777Z,12
2022-10-05T03:19:28.359Z,12
2022-10-05T03:20:28.395Z,12
2022-10-05T03:21:28.419Z,12.0714
2022-10-05T03:22:28.451Z,12.0714
2022-10-05T03:23:28.487Z,12.0714
2022-10-05T03:24:28.523Z,12.0714
2022-10-05T03:25:28.556Z,12.0714
2022-10-05T03:26:28.587Z,12.0714
2022-10-05T03:27:28.633Z,12.1429
2022-10-05T03:28:28.720Z,12.1429
2022-10-05T03:29:28.698Z,12.1429
2022-10-05T03:30:28.747Z,12.1429
2022-10-05T03:31:28.822Z,12.1429
2022-10-05T03:32:28.792Z,12.1429
2022-10-05T03:33:28.825Z,12.2143
2022-10-05T03:34:28.858Z,12.2143
2022-10-05T03:35:28.895Z,12.2143
2022-10-05T03:36:28.929Z,12.2143
2022-10-05T03:37:28.972Z,12.2857
2022-10-05T03:38:28.997Z,12.2857
2022-10-05T03:39:29.030Z,12.2857
2022-10-05T03:40:29.060Z,12.2857
2022-10-05T03:41:29.094Z,12.2857
2022-10-05T03:42:29.115Z,12.2857
2022-10-05T03:43:29.156Z,12.3571
2022-10-05T03:44:29.192Z,12.3571
2022-10-05T03:45:29.220Z,12.3571
2022-10-05T03:46:29.274Z,12.3571
2022-10-05T03:47:29.293Z,12.3571
2022-10-05T03:48:29.334Z,12.3571
2022-10-05T03:49:29.359Z,12.3571
2022-10-05T03:50:29.397Z,12.4286
2022-10-05T03:51:29.433Z,12.4286
2022-10-05T03:52:29.470Z,12.4286
2022-10-05T03:53:29.506Z,12.4286
2022-10-05T03:54:29.533Z,12.4286
2022-10-05T03:55:29.570Z,12.4286
2022-10-05T03:56:29.603Z,12.4286
2022-10-05T03:57:29.639Z,12.5
2022-10-05T03:58:29.673Z,12.5
2022-10-05T03:59:32.573Z,12.5
2022-10-05T04:00:29.745Z,12.5
2022-10-05T04:01:29.810Z,12.5
2022-10-05T04:02:29.893Z,12.5
2022-10-05T04:03:29.857Z,12.5
2022-10-05T04:04:29.888Z,12.5714
2022-10-05T04:05:29.918Z,12.5714
2022-10-05T04:06:29.954Z,12.5714
2022-10-05T04:07:29.988Z,12.5714
2022-10-05T04:08:30.021Z,12.5714
2022-10-05T04:09:30.048Z,12.5714
2022-10-05T04:10:30.083Z,12.5714
2022-10-05T04:11:30.123Z,12.5714
2022-10-05T04:12:30.156Z,12.5714
2022-10-05T04:13:30.184Z,12.5714
2022-10-05T04:14:30.222Z,12.5714
2022-10-05T04:15:30.253Z,12.5714
2022-10-05T04:16:30.284Z,12.5714
2022-10-05T04:17:30.323Z,12.5714
2022-10-05T04:18:30.359Z,12.5714
2022-10-05T04:19:30.397Z,12.5714
2022-10-05T04:20:30.431Z,12.5714
2022-10-05T04:21:30.463Z,12.5714
2022-10-05T04:22:30.503Z,12.5714
2022-10-05T04:23:30.536Z,12.5714
2022-10-05T04:24:30.578Z,12.5714
2022-10-05T04:25:30.617Z,12.5714
2022-10-05T04:26:30.648Z,12.5714
2022-10-05T04:27:30.686Z,12.5714
2022-10-05T04:28:32.422Z,12.5714
2022-10-05T04:29:30.750Z,12.5714
2022-10-05T04:30:30.782Z,12.5714
2022-10-05T04:31:30.851Z,12.5714
2022-10-05T04:32:30.847Z,12.5714
2022-10-05T04:33:30.885Z,12.5714
2022-10-05T04:34:30.920Z,12.5714
2022-10-05T04:35:30.957Z,12.5714
2022-10-05T04:36:30.988Z,12.5714
2022-10-05T04:37:31.027Z,12.5714
2022-10-05T04:38:31.065Z,12.6429
2022-10-05T04:39:31.092Z,12.6429
2022-10-05T04:40:31.129Z,12.5714
2022-10-05T04:41:31.162Z,12.6429
2022-10-05T04:42:31.193Z,12.6429
2022-10-05T04:43:31.233Z,12.6429
2022-10-05T04:44:31.267Z,12.6429
2022-10-05T04:45:31.313Z,12.6429
2022-10-05T04:46:31.380Z,12.6429
2022-10-05T04:47:31.370Z,12.6429
2022-10-05T04:48:31.407Z,12.5714
2022-10-05T04:49:31.449Z,12.6429
2022-10-05T04:50:31.483Z,12.5714
2022-10-05T04:51:31.518Z,12.5714
2022-10-05T04:52:31.547Z,12.5714
2022-10-05T04:53:31.588Z,12.5714
2022-10-05T04:54:31.623Z,12.5714
2022-10-05T04:55:31.663Z,12.5714
2022-10-05T04:56:31.697Z,12.5714
2022-10-05T04:57:31.728Z,12.5714
2022-10-05T04:58:31.757Z,12.5714
2022-10-05T04:59:31.789Z,12.5714
2022-10-05T05:00:31.856Z,12.5714
2022-10-05T05:01:31.864Z,12.6429
2022-10-05T05:02:31.893Z,12.6429
2022-10-05T05:03:32.031Z,12.6429
2022-10-05T05:04:31.955Z,12.6429
2022-10-05T05:05:31.991Z,12.6429
2022-10-05T05:06:32.026Z,12.6429
2022-10-05T05:07:32.054Z,12.6429
2022-10-05T05:08:32.091Z,12.6429
2022-10-05T05:09:32.131Z,12.6429
2022-10-05T05:10:32.166Z,12.6429
2022-10-05T05:11:32.206Z,12.7143
2022-10-05T05:12:32.248Z,12.7143
2022-10-05T05:13:32.277Z,12.7143
2022-10-05T05:14:32.327Z,12.7143
2022-10-05T05:15:32.353Z,12.7143
2022-10-05T05:16:32.451Z,12.7143
2022-10-05T05:17:32.435Z,12.7143
2022-10-05T05:18:32.469Z,12.7143
2022-10-05T05:19:32.511Z,12.7143
2022-10-05T05:20:32.546Z,12.7143
2022-10-05T05:21:32.585Z,12.7143
2022-10-05T05:22:32.616Z,12.7143
2022-10-05T05:23:32.646Z,12.7143
2022-10-05T05:24:32.678Z,12.7143
2022-10-05T05:25:32.712Z,12.7143
2022-10-05T05:26:38.155Z,12.7143
2022-10-05T05:27:32.781Z,12.7143
2022-10-05T05:28:32.926Z,12.7143
2022-10-05T05:29:32.851Z,12.7143
2022-10-05T05:30:32.893Z,12.7143
2022-10-05T05:31:32.987Z,12.7143
2022-10-05T05:32:32.954Z,12.7143
2022-10-05T05:33:32.981Z,12.7143
2022-10-05T05:34:33.008Z,12.7143
2022-10-05T05:35:33.044Z,12.7143
2022-10-05T05:36:33.073Z,12.7143
2022-10-05T05:37:33.104Z,12.7143
2022-10-05T05:38:33.142Z,12.7857
2022-10-05T05:39:33.182Z,12.7857
2022-10-05T05:40:33.213Z,12.7857
2022-10-05T05:41:33.235Z,12.7857
2022-10-05T05:42:33.278Z,12.7857
2022-10-05T05:43:33.306Z,12.7857
2022-10-05T05:44:38.447Z,12.7857
2022-10-05T05:45:33.380Z,12.8571
2022-10-05T05:46:58.425Z,12.8571
2022-10-05T05:47:33.477Z,12.8571
2022-10-05T05:48:33.486Z,12.8571
2022-10-05T05:49:33.525Z,12.9286
2022-10-05T05:50:33.551Z,12.9286
2022-10-05T05:51:33.584Z,12.9286
2022-10-05T05:52:33.618Z,12.9286
2022-10-05T05:53:33.658Z,12.9286
2022-10-05T05:54:33.687Z,12.9286
2022-10-05T05:55:33.714Z,12.9286
2022-10-05T05:56:33.757Z,12.9286
2022-10-05T05:57:33.787Z,12.9286
2022-10-05T05:58:33.849Z,12.9286
2022-10-05T05:59:33.864Z,13
2022-10-05T06:00:33.976Z,13
2022-10-05T06:01:34.300Z,13
2022-10-05T06:02:34.096Z,13
2022-10-05T06:03:33.996Z,13
2022-10-05T06:04:34.038Z,13
2022-10-05T06:05:34.077Z,13
2022-10-05T06:06:34.107Z,13
2022-10-05T06:07:34.142Z,13.0714
2022-10-05T06:08:34.176Z,13.0714
2022-10-05T06:09:34.212Z,13.0714
2022-10-05T06:10:34.255Z,13.0714
2022-10-05T06:11:34.286Z,13.0714
2022-10-05T06:12:34.321Z,13.1429
2022-10-05T06:13:34.352Z,13.1429
2022-10-05T06:14:34.386Z,13.2143
2022-10-05T06:15:34.420Z,13.2143
2022-10-05T06:16:34.520Z,13.2143
2022-10-05T06:17:34.484Z,13.2857
2022-10-05T06:18:34.516Z,13.2857
2022-10-05T06:19:34.545Z,13.2857
2022-10-05T06:20:34.579Z,13.3571
2022-10-05T06:21:34.600Z,13.3571
2022-10-05T06:22:34.637Z,13.3571
2022-10-05T06:23:34.673Z,13.4286
2022-10-05T06:24:34.713Z,13.4286
2022-10-05T06:25:34.755Z,13.4286
2022-10-05T06:26:34.792Z,13.5
2022-10-05T06:27:34.841Z,13.5
2022-10-05T06:28:34.946Z,13.5
2022-10-05T06:29:34.891Z,13.5714
2022-10-05T06:30:34.923Z,13.6429
2022-10-05T06:31:35.027Z,13.6429
2022-10-05T06:32:34.992Z,13.7143
2022-10-05T06:33:35.019Z,13.7143
2022-10-05T06:34:35.051Z,13.7857
2022-10-05T06:35:35.087Z,13.8571
2022-10-05T06:36:35.123Z,13.8571
2022-10-05T06:37:35.163Z,13.8571
2022-10-05T06:38:35.186Z,13.9286
2022-10-05T06:39:35.216Z,13.9286
2022-10-05T06:40:35.252Z,14
2022-10-05T06:41:35.284Z,14
2022-10-05T06:42:35.319Z,14
2022-10-05T06:43:35.347Z,14
2022-10-05T06:44:35.372Z,14
2022-10-05T06:45:35.436Z,14.0714
2022-10-05T06:46:35.434Z,14.0714
2022-10-05T06:47:35.462Z,14.1429
2022-10-05T06:48:35.486Z,14.2143
2022-10-05T06:49:35.519Z,14.2143
2022-10-05T06:50:35.560Z,14.2857
2022-10-05T06:51:35.598Z,14.2857
2022-10-05T06:52:35.631Z,14.2857
2022-10-05T06:53:35.687Z,14.3571
2022-10-05T06:54:35.691Z,14.3571
2022-10-05T06:55:35.720Z,14.3571
2022-10-05T06:56:35.750Z,14.3571
2022-10-05T06:57:35.783Z,14.3571
2022-10-05T06:58:35.815Z,14.3571
2022-10-05T06:59:35.847Z,14.3571
2022-10-05T07:00:35.878Z,14.3571
2022-10-05T07:01:36.004Z,14.3571
2022-10-05T07:02:35.980Z,14.4286
2022-10-05T07:03:35.987Z,14.4286
2022-10-05T07:04:36.886Z,14.4286
2022-10-05T07:05:36.051Z,14.4286
2022-10-05T07:06:36.076Z,14.4286
2022-10-05T07:07:36.117Z,14.4286
2022-10-05T07:08:36.154Z,14.5
2022-10-05T07:09:36.195Z,14.5
2022-10-05T07:10:36.221Z,14.5
2022-10-05T07:11:36.261Z,14.5714
2022-10-05T07:12:36.289Z,14.5714
2022-10-05T07:13:36.324Z,14.5714
2022-10-05T07:14:36.352Z,14.6429
2022-10-05T07:15:36.385Z,14.6429
2022-10-05T07:16:36.597Z,14.6429
2022-10-05T07:17:36.461Z,14.7143
2022-10-05T07:18:36.484Z,14.7143
2022-10-05T07:19:36.520Z,14.7143
2022-10-05T07:20:36.564Z,14.7857
2022-10-05T07:21:36.596Z,14.7857
2022-10-05T07:22:36.630Z,14.8571
2022-10-05T07:23:36.671Z,14.8571
2022-10-05T07:24:36.706Z,14.9286
2022-10-05T07:25:36.741Z,14.9286
2022-10-05T07:26:36.775Z,15
2022-10-05T07:27:36.806Z,15
2022-10-05T07:28:36.907Z,15.0714
2022-10-05T07:29:36.875Z,15.0714
2022-10-05T07:30:36.967Z,15.1429
2022-10-05T07:31:36.946Z,15.2143
2022-10-05T07:32:36.989Z,15.2857
2022-10-05T07:33:37.046Z,15.2857
2022-10-05T07:34:37.074Z,15.3571
2022-10-05T07:35:37.092Z,15.4286
2022-10-05T07:36:37.123Z,15.5
2022-10-05T07:37:37.151Z,15.5714
2022-10-05T07:38:37.181Z,15.5714
2022-10-05T07:39:58.975Z,15.6429
2022-10-05T07:40:37.242Z,15.6429
2022-10-05T07:41:37.275Z,15.7143
2022-10-05T07:42:44.566Z,15.7143
2022-10-05T07:43:57.928Z,15.7143
2022-10-05T07:44:37.377Z,15.7857
2022-10-05T07:45:37.494Z,15.7857
2022-10-05T07:46:37.454Z,15.8571
2022-10-05T07:47:37.489Z,15.8571
2022-10-05T07:48:37.522Z,15.9286
2022-10-05T07:49:37.560Z,15.9286
2022-10-05T07:50:37.598Z,16
2022-10-05T07:51:37.625Z,16
2022-10-05T07:52:37.652Z,16.0714
2022-10-05T07:53:37.679Z,16.0714
2022-10-05T07:54:37.720Z,16.1429
2022-10-05T07:55:37.753Z,16.1429
2022-10-05T07:56:37.779Z,16.2143
2022-10-05T07:57:37.814Z,16.2143
2022-10-05T07:58:37.845Z,16.2857
2022-10-05T07:59:37.878Z,16.2857
2022-10-05T08:00:37.909Z,16.2857
2022-10-05T08:01:37.992Z,16.3571
2022-10-05T08:02:38.042Z,16.3571
2022-10-05T08:03:38.014Z,16.3571
2022-10-05T08:04:41.527Z,16.4286
2022-10-05T08:05:38.076Z,16.5
2022-10-05T08:06:38.101Z,16.5
2022-10-05T08:07:38.132Z,16.5
2022-10-05T08:08:38.160Z,16.5714
2022-10-05T08:09:38.204Z,16.5714
2022-10-05T08:10:38.240Z,16.6429
2022-10-05T08:11:38.277Z,16.6429
2022-10-05T08:12:38.322Z,16.7143
2022-10-05T08:13:38.349Z,16.7143
2022-10-05T08:14:38.372Z,16.7857
2022-10-05T08:15:38.430Z,16.8571
2022-10-05T08:16:38.448Z,16.8571
2022-10-05T08:17:38.458Z,16.9286
2022-10-05T08:18:38.490Z,16.9286
2022-10-05T08:19:38.517Z,17
2022-10-05T08:20:38.555Z,17
2022-10-05T08:21:38.586Z,17
2022-10-05T08:22:38.616Z,17.0714
2022-10-05T08:23:38.705Z,17.0714
2022-10-05T08:24:38.681Z,17.0714
2022-10-05T08:25:38.712Z,17.1429
2022-10-05T08:26:38.748Z,17.1429
2022-10-05T08:27:38.779Z,17.1429
2022-10-05T08:28:38.917Z,17.1429
2022-10-05T08:29:38.845Z,17.2143
2022-10-05T08:30:38.866Z,17.2143
2022-10-05T08:31:38.973Z,17.2857
2022-10-05T08:32:38.938Z,17.2857
2022-10-05T08:33:38.979Z,17.2857
2022-10-05T08:34:39.007Z,17.3571
2022-10-05T08:35:39.045Z,17.3571
2022-10-05T08:36:39.074Z,17.3571
2022-10-05T08:37:39.107Z,17.3571
2022-10-05T08:38:39.139Z,17.4286
2022-10-05T08:39:39.170Z,17.4286
2022-10-05T08:40:39.207Z,17.4286
2022-10-05T08:41:39.251Z,17.4286
2022-10-05T08:42:39.269Z,17.5
2022-10-05T08:43:39.289Z,17.5
2022-10-05T08:44:39.318Z,17.5
2022-10-05T08:45:39.381Z,17.5714
2022-10-05T08:46:39.421Z,17.5714
2022-10-05T08:47:39.434Z,17.6429
2022-10-05T08:48:39.457Z,17.6429
2022-10-05T08:49:39.482Z,17.7143
2022-10-05T08:50:39.519Z,17.7143
2022-10-05T08:51:39.561Z,17.7857
2022-10-05T08:52:39.589Z,17.7857
2022-10-05T08:53:39.625Z,17.8571
2022-10-05T08:54:39.657Z,17.8571
2022-10-05T08:55:39.703Z,17.8571
2022-10-05T08:56:39.728Z,17.9286
2022-10-05T08:57:39.761Z,17.9286
2022-10-05T08:58:39.789Z,18
2022-10-05T08:59:39.831Z,18
2022-10-05T09:00:39.849Z,18
2022-10-05T09:01:39.940Z,18.0714
2022-10-05T09:02:39.963Z,18.0714
2022-10-05T09:03:39.946Z,18.0714
2022-10-05T09:04:39.975Z,18.1429
2022-10-05T09:05:40.023Z,18.1429
2022-10-05T09:06:40.047Z,18.1429
2022-10-05T09:07:40.079Z,18.2143
2022-10-05T09:08:40.114Z,18.2143
2022-10-05T09:09:40.143Z,18.2143
2022-10-05T09:10:40.178Z,18.2143
2022-10-05T09:11:40.209Z,18.2857
2022-10-05T09:12:40.255Z,18.2857
2022-10-05T09:13:40.287Z,18.2857
2022-10-05T09:14:40.318Z,18.2857
2022-10-05T09:15:40.467Z,18.3571
2022-10-05T09:16:40.396Z,18.3571
2022-10-05T09:17:40.434Z,18.3571
2022-10-05T09:18:40.468Z,18.3571
2022-10-05T09:19:40.508Z,18.3571
2022-10-05T09:20:40.539Z,18.3571
2022-10-05T09:21:40.578Z,18.3571
2022-10-05T09:22:40.616Z,18.3571
2022-10-05T09:23:40.642Z,18.3571
2022-10-05T09:24:42.865Z,18.4286
2022-10-05T09:25:40.696Z,18.4286
2022-10-05T09:26:40.723Z,18.4286
2022-10-05T09:27:40.759Z,18.4286
2022-10-05T09:28:40.864Z,18.5
2022-10-05T09:29:40.817Z,18.5
2022-10-05T09:30:40.926Z,18.5
2022-10-05T09:31:40.880Z,18.5
2022-10-05T09:32:40.915Z,18.5714
2022-10-05T09:33:40.950Z,18.5714
2022-10-05T09:34:40.981Z,18.6429
2022-10-05T09:35:41.016Z,18.6429
2022-10-05T09:36:41.041Z,18.6429
2022-10-05T09:37:41.081Z,18.7143
2022-10-05T09:38:41.105Z,18.7143
2022-10-05T09:39:41.136Z,18.7143
2022-10-05T09:40:41.166Z,18.7143
2022-10-05T09:41:41.202Z,18.7857
2022-10-05T09:42:41.242Z,18.7857
2022-10-05T09:43:41.278Z,18.8571
2022-10-05T09:44:41.307Z,18.8571
2022-10-05T09:45:41.346Z,18.8571
2022-10-05T09:46:41.449Z,18.9286
2022-10-05T09:47:41.431Z,18.9286
2022-10-05T09:48:41.460Z,18.9286
2022-10-05T09:49:41.498Z,19
2022-10-05T09:50:41.541Z,19
2022-10-05T09:51:41.568Z,19
2022-10-05T09:52:41.595Z,19
2022-10-05T09:53:41.620Z,19
2022-10-05T09:54:41.661Z,19
2022-10-05T09:55:41.693Z,19
2022-10-05T09:56:41.729Z,18.9286
2022-10-05T09:57:41.756Z,18.9286
2022-10-05T09:58:41.793Z,18.9286
2022-10-05T09:59:41.831Z,18.9286
2022-10-05T10:00:45.861Z,18.8571
2022-10-05T10:01:41.946Z,18.8571
2022-10-05T10:02:42.167Z,18.8571
2022-10-05T10:03:41.954Z,18.8571
2022-10-05T10:04:41.973Z,18.8571
2022-10-05T10:05:42.004Z,18.8571
2022-10-05T10:06:42.045Z,18.8571
2022-10-05T10:07:42.074Z,18.8571
2022-10-05T10:08:42.105Z,18.8571
2022-10-05T10:09:42.150Z,18.8571
2022-10-05T10:10:42.167Z,18.8571
2022-10-05T10:11:42.199Z,18.8571
2022-10-05T10:12:42.228Z,18.8571
2022-10-05T10:13:42.270Z,18.8571
2022-10-05T10:14:42.308Z,18.7857
2022-10-05T10:15:42.397Z,18.7857
2022-10-05T10:16:42.381Z,18.7857
2022-10-05T10:17:42.417Z,18.7857
2022-10-05T10:18:42.452Z,18.7857
2022-10-05T10:19:42.491Z,18.7857
2022-10-05T10:20:42.529Z,18.7857
2022-10-05T10:21:42.568Z,18.7857
2022-10-05T10:22:43.323Z,18.7857
2022-10-05T10:23:42.626Z,18.7857
2022-10-05T10:24:42.704Z,18.7857
2022-10-05T10:25:42.708Z,18.7857
2022-10-05T10:26:42.747Z,18.7857
2022-10-05T10:27:42.783Z,18.8571
2022-10-05T10:28:42.812Z,18.8571
2022-10-05T10:29:42.848Z,18.8571
2022-10-05T10:30:42.957Z,18.8571
2022-10-05T10:31:42.918Z,18.9286
2022-10-05T10:32:42.957Z,18.9286
2022-10-05T10:33:42.989Z,18.9286
2022-10-05T10:34:43.016Z,19
2022-10-05T10:35:43.058Z,19
2022-10-05T10:36:43.091Z,19.0714
2022-10-05T10:37:43.124Z,19.0714
2022-10-05T10:38:43.152Z,19.0714
2022-10-05T10:39:43.185Z,19.1429
2022-10-05T10:40:43.216Z,19.1429
2022-10-05T10:41:43.253Z,19.1429
2022-10-05T10:42:43.283Z,19.1429
2022-10-05T10:43:43.313Z,19.2143
2022-10-05T10:44:43.350Z,19.2143
2022-10-05T10:45:43.383Z,19.2143
2022-10-05T10:46:43.464Z,19.2143
2022-10-05T10:47:43.451Z,19.2143
2022-10-05T10:48:43.482Z,19.2143
2022-10-05T10:49:43.625Z,19.2143
2022-10-05T10:50:43.544Z,19.2857
2022-10-05T10:51:43.582Z,19.2857
2022-10-05T10:52:43.618Z,19.3571
2022-10-05T10:53:43.660Z,19.3571
2022-10-05T10:54:43.687Z,19.4286
2022-10-05T10:55:43.716Z,19.5
2022-10-05T10:56:43.748Z,19.5
2022-10-05T10:57:43.780Z,19.5
2022-10-05T10:58:43.819Z,19.5
2022-10-05T10:59:43.864Z,19.5
2022-10-05T11:00:43.887Z,19.5
2022-10-05T11:01:44.033Z,19.5
2022-10-05T11:02:44.082Z,19.5714
2022-10-05T11:03:43.984Z,19.5714
2022-10-05T11:04:44.017Z,19.5714
2022-10-05T11:05:47.961Z,19.5714
2022-10-05T11:06:44.088Z,19.5
2022-10-05T11:07:44.119Z,19.5
2022-10-05T11:08:44.202Z,19.5
2022-10-05T11:09:44.198Z,19.5
2022-10-05T11:10:44.231Z,19.5
2022-10-05T11:11:44.273Z,19.5
2022-10-05T11:12:44.305Z,19.5
2022-10-05T11:13:44.340Z,19.5
2022-10-05T11:14:44.381Z,19.5
2022-10-05T11:15:44.495Z,19.5
2022-10-05T11:16:44.442Z,19.5
2022-10-05T11:17:44.481Z,19.5
2022-10-05T11:18:44.515Z,19.5
2022-10-05T11:19:59.641Z,19.5
2022-10-05T11:20:44.583Z,19.5
2022-10-05T11:21:44.610Z,19.5
2022-10-05T11:22:44.644Z,19.5
2022-10-05T11:23:44.674Z,19.5
2022-10-05T11:24:44.700Z,19.5
2022-10-05T11:25:44.737Z,19.5714
2022-10-05T11:26:44.773Z,19.5714
2022-10-05T11:27:44.807Z,19.5714
2022-10-05T11:28:44.824Z,19.5714
2022-10-05T11:29:44.867Z,19.5714
2022-10-05T11:30:47.523Z,19.5714
2022-10-05T11:31:44.964Z,19.6429
2022-10-05T11:32:44.968Z,19.6429
2022-10-05T11:33:45.007Z,19.5714
2022-10-05T11:34:45.034Z,19.5714
2022-10-05T11:35:45.072Z,19.5714
2022-10-05T11:36:45.102Z,19.5714
2022-10-05T11:37:45.128Z,19.5714
2022-10-05T11:38:45.164Z,19.5714
2022-10-05T11:39:45.196Z,19.5714
2022-10-05T11:40:45.233Z,19.5714
2022-10-05T11:41:45.623Z,19.6429
2022-10-05T11:42:45.305Z,19.6429
2022-10-05T11:43:45.346Z,19.7143
2022-10-05T11:44:45.386Z,19.7143
2022-10-05T11:45:45.421Z,19.7857
2022-10-05T11:46:45.538Z,19.7857
2022-10-05T11:47:45.479Z,19.8571
2022-10-05T11:48:45.515Z,19.8571
2022-10-05T11:49:45.553Z,19.9286
2022-10-05T11:50:45.582Z,19.9286
2022-10-05T11:51:45.869Z,20
2022-10-05T11:52:45.653Z,20
2022-10-05T11:53:45.685Z,20.0714
2022-10-05T11:55:05.781Z,20.1429
2022-10-05T11:55:45.748Z,20.1429
2022-10-05T11:56:48.450Z,20.2143
2022-10-05T11:57:45.806Z,20.2143
2022-10-05T11:58:45.841Z,20.2143
2022-10-05T11:59:45.872Z,20.2857
2022-10-05T12:00:45.904Z,20.2857
2022-10-05T12:01:45.942Z,20.3571
2022-10-05T12:02:46.036Z,20.3571
2022-10-05T12:03:46.068Z,20.3571
2022-10-05T12:04:46.049Z,20.4286
2022-10-05T12:05:46.088Z,20.4286
2022-10-05T12:06:46.540Z,20.4286
2022-10-05T12:07:46.157Z,20.5
2022-10-05T12:08:46.197Z,20.5
2022-10-05T12:09:46.229Z,20.5
2022-10-05T12:10:46.266Z,20.5
2022-10-05T12:11:46.304Z,20.5
2022-10-05T12:12:46.336Z,20.5
2022-10-05T12:13:46.376Z,20.5
2022-10-05T12:14:46.407Z,20.5714
2022-10-05T12:15:46.498Z,20.5714
2022-10-05T12:16:46.482Z,20.5714
2022-10-05T12:17:46.512Z,20.5714
2022-10-05T12:18:46.542Z,20.5714
2022-10-05T12:19:46.564Z,20.5714
2022-10-05T12:20:46.595Z,20.5714